sensor_id;sensor_type;location;lat;lon;timestamp;P1;durP1;ratioP1;P2;durP2;ratioP2
73474;SDS011;61711;52.266;10.542;2022-10-31T00:02:21;12.25;;;6.07;;
73474;SDS011;61711;52.266;10.542;2022-10-31T00:04:47;14.55;;;6.72;;
73474;SDS011;61711;52.266;10.542;2022-10-31T00:07:13;13.50;;;6.70;;
73474;SDS011;61711;52.266;10.542;2022-10-31T00:09:39;12.45;;;6.13;;
73474;SDS011;61711;52.266;10.542;2022-10-31T00:12:05;12.90;;;7.43;;
73474;SDS011;61711;52.266;10.542;2022-10-31T00:14:31;13.38;;;6.32;;
73474;SDS011;61711;52.266;10.542;2022-10-31T00:16:57;12.55;;;6.63;;
73474;SDS011;61711;52.266;10.542;2022-10-31T00:19:23;11.60;;;6.43;;
73474;SDS011;61711;52.266;10.542;2022-10-31T00:21:51;13.00;;;6.53;;
73474;SDS011;61711;52.266;10.542;2022-10-31T00:24:17;12.13;;;6.65;;
73474;SDS011;61711;52.266;10.542;2022-10-31T00:26:43;16.13;;;6.60;;
73474;SDS011;61711;52.266;10.542;2022-10-31T00:29:09;11.90;;;6.90;;
73474;SDS011;61711;52.266;10.542;2022-10-31T00:31:35;11.60;;;6.75;;
73474;SDS011;61711;52.266;10.542;2022-10-31T00:34:01;11.32;;;7.07;;
73474;SDS011;61711;52.266;10.542;2022-10-31T00:36:28;14.18;;;7.03;;
73474;SDS011;61711;52.266;10.542;2022-10-31T00:38:54;13.20;;;7.03;;
73474;SDS011;61711;52.266;10.542;2022-10-31T00:41:20;14.38;;;7.57;;
73474;SDS011;61711;52.266;10.542;2022-10-31T00:43:46;15.43;;;7.10;;
73474;SDS011;61711;52.266;10.542;2022-10-31T00:46:13;19.60;;;7.10;;
73474;SDS011;61711;52.266;10.542;2022-10-31T00:48:39;13.48;;;6.35;;
73474;SDS011;61711;52.266;10.542;2022-10-31T00:51:05;14.50;;;6.80;;
73474;SDS011;61711;52.266;10.542;2022-10-31T00:53:31;10.35;;;6.78;;
73474;SDS011;61711;52.266;10.542;2022-10-31T00:55:57;13.00;;;7.03;;
73474;SDS011;61711;52.266;10.542;2022-10-31T00:58:23;11.13;;;7.03;;
73474;SDS011;61711;52.266;10.542;2022-10-31T01:00:49;12.85;;;7.15;;
73474;SDS011;61711;52.266;10.542;2022-10-31T01:03:25;14.85;;;7.40;;
73474;SDS011;61711;52.266;10.542;2022-10-31T01:08:23;15.32;;;7.13;;
73474;SDS011;61711;52.266;10.542;2022-10-31T01:11:03;14.38;;;7.60;;
73474;SDS011;61711;52.266;10.542;2022-10-31T01:13:29;14.75;;;6.90;;
73474;SDS011;61711;52.266;10.542;2022-10-31T01:15:56;10.75;;;6.90;;
73474;SDS011;61711;52.266;10.542;2022-10-31T01:18:22;10.45;;;6.97;;
73474;SDS011;61711;52.266;10.542;2022-10-31T01:20:56;12.65;;;6.53;;
73474;SDS011;61711;52.266;10.542;2022-10-31T01:23:23;13.23;;;6.60;;
73474;SDS011;61711;52.266;10.542;2022-10-31T01:25:49;11.38;;;6.25;;
73474;SDS011;61711;52.266;10.542;2022-10-31T01:28:15;12.32;;;6.68;;
73474;SDS011;61711;52.266;10.542;2022-10-31T01:30:41;9.07;;;6.03;;
73474;SDS011;61711;52.266;10.542;2022-10-31T01:33:07;11.52;;;6.43;;
73474;SDS011;61711;52.266;10.542;2022-10-31T01:35:33;10.75;;;6.40;;
73474;SDS011;61711;52.266;10.542;2022-10-31T01:37:59;11.23;;;6.43;;
73474;SDS011;61711;52.266;10.542;2022-10-31T01:40:28;11.73;;;6.20;;
73474;SDS011;61711;52.266;10.542;2022-10-31T01:42:54;15.88;;;6.40;;
73474;SDS011;61711;52.266;10.542;2022-10-31T01:45:20;14.48;;;6.05;;
73474;SDS011;61711;52.266;10.542;2022-10-31T01:47:46;12.73;;;6.28;;
73474;SDS011;61711;52.266;10.542;2022-10-31T01:50:17;14.73;;;6.13;;
73474;SDS011;61711;52.266;10.542;2022-10-31T01:52:45;12.43;;;6.32;;
73474;SDS011;61711;52.266;10.542;2022-10-31T01:55:25;11.55;;;6.30;;
73474;SDS011;61711;52.266;10.542;2022-10-31T01:57:53;16.65;;;6.47;;
73474;SDS011;61711;52.266;10.542;2022-10-31T02:00:21;16.77;;;6.50;;
73474;SDS011;61711;52.266;10.542;2022-10-31T02:02:47;12.30;;;6.70;;
73474;SDS011;61711;52.266;10.542;2022-10-31T02:05:16;13.57;;;7.00;;
73474;SDS011;61711;52.266;10.542;2022-10-31T02:07:48;15.55;;;6.38;;
73474;SDS011;61711;52.266;10.542;2022-10-31T02:10:16;14.70;;;6.55;;
73474;SDS011;61711;52.266;10.542;2022-10-31T02:12:43;15.60;;;6.20;;
73474;SDS011;61711;52.266;10.542;2022-10-31T02:15:10;15.10;;;6.68;;
73474;SDS011;61711;52.266;10.542;2022-10-31T02:17:36;10.38;;;6.10;;
73474;SDS011;61711;52.266;10.542;2022-10-31T02:30:15;14.38;;;6.05;;
73474;SDS011;61711;52.266;10.542;2022-10-31T02:42:59;13.75;;;6.60;;
73474;SDS011;61711;52.266;10.542;2022-10-31T02:45:31;12.43;;;6.72;;
73474;SDS011;61711;52.266;10.542;2022-10-31T02:48:08;14.93;;;6.53;;
73474;SDS011;61711;52.266;10.542;2022-10-31T02:50:36;12.57;;;6.70;;
73474;SDS011;61711;52.266;10.542;2022-10-31T02:53:03;14.45;;;7.00;;
73474;SDS011;61711;52.266;10.542;2022-10-31T02:57:59;11.98;;;6.65;;
73474;SDS011;61711;52.266;10.542;2022-10-31T03:00:26;14.02;;;6.70;;
73474;SDS011;61711;52.266;10.542;2022-10-31T03:05:28;12.80;;;7.88;;
73474;SDS011;61711;52.266;10.542;2022-10-31T03:08:15;16.88;;;8.23;;
73474;SDS011;61711;52.266;10.542;2022-10-31T03:10:47;15.85;;;7.80;;
73474;SDS011;61711;52.266;10.542;2022-10-31T03:15:44;17.65;;;8.55;;
73474;SDS011;61711;52.266;10.542;2022-10-31T03:18:18;15.82;;;9.15;;
73474;SDS011;61711;52.266;10.542;2022-10-31T03:20:48;16.50;;;8.90;;
73474;SDS011;61711;52.266;10.542;2022-10-31T03:23:16;17.33;;;8.90;;
73474;SDS011;61711;52.266;10.542;2022-10-31T03:25:44;18.27;;;9.15;;
73474;SDS011;61711;52.266;10.542;2022-10-31T03:28:11;19.95;;;9.98;;
73474;SDS011;61711;52.266;10.542;2022-10-31T03:30:38;21.00;;;9.75;;
73474;SDS011;61711;52.266;10.542;2022-10-31T03:33:07;19.80;;;10.57;;
73474;SDS011;61711;52.266;10.542;2022-10-31T03:35:35;24.50;;;12.57;;
73474;SDS011;61711;52.266;10.542;2022-10-31T03:38:02;23.75;;;12.20;;
73474;SDS011;61711;52.266;10.542;2022-10-31T03:40:28;23.52;;;12.55;;
73474;SDS011;61711;52.266;10.542;2022-10-31T03:43:00;25.02;;;12.10;;
73474;SDS011;61711;52.266;10.542;2022-10-31T03:45:29;23.40;;;12.32;;
73474;SDS011;61711;52.266;10.542;2022-10-31T03:47:56;24.92;;;11.82;;
73474;SDS011;61711;52.266;10.542;2022-10-31T03:50:25;28.20;;;13.77;;
73474;SDS011;61711;52.266;10.542;2022-10-31T03:52:59;24.55;;;13.35;;
73474;SDS011;61711;52.266;10.542;2022-10-31T03:55:30;28.92;;;13.60;;
73474;SDS011;61711;52.266;10.542;2022-10-31T03:58:02;26.33;;;12.88;;
73474;SDS011;61711;52.266;10.542;2022-10-31T04:00:29;26.45;;;13.20;;
73474;SDS011;61711;52.266;10.542;2022-10-31T04:05:28;23.15;;;13.45;;
73474;SDS011;61711;52.266;10.542;2022-10-31T04:07:55;27.17;;;13.13;;
73474;SDS011;61711;52.266;10.542;2022-10-31T04:10:21;27.30;;;13.25;;
73474;SDS011;61711;52.266;10.542;2022-10-31T04:12:54;32.28;;;13.40;;
73474;SDS011;61711;52.266;10.542;2022-10-31T04:15:22;24.98;;;13.80;;
73474;SDS011;61711;52.266;10.542;2022-10-31T04:17:49;32.22;;;14.77;;
73474;SDS011;61711;52.266;10.542;2022-10-31T04:20:16;30.05;;;14.65;;
73474;SDS011;61711;52.266;10.542;2022-10-31T04:22:42;29.58;;;15.23;;
73474;SDS011;61711;52.266;10.542;2022-10-31T04:25:08;30.67;;;15.43;;
73474;SDS011;61711;52.266;10.542;2022-10-31T04:27:34;34.03;;;15.27;;
73474;SDS011;61711;52.266;10.542;2022-10-31T04:30:00;33.17;;;14.70;;
73474;SDS011;61711;52.266;10.542;2022-10-31T04:32:26;34.92;;;15.68;;
73474;SDS011;61711;52.266;10.542;2022-10-31T04:34:52;31.88;;;15.43;;
73474;SDS011;61711;52.266;10.542;2022-10-31T04:37:18;31.65;;;15.93;;
73474;SDS011;61711;52.266;10.542;2022-10-31T04:39:44;31.60;;;15.93;;
73474;SDS011;61711;52.266;10.542;2022-10-31T04:42:10;26.55;;;15.35;;
73474;SDS011;61711;52.266;10.542;2022-10-31T04:44:36;27.30;;;15.98;;
73474;SDS011;61711;52.266;10.542;2022-10-31T04:47:03;28.98;;;16.08;;
73474;SDS011;61711;52.266;10.542;2022-10-31T04:49:29;30.10;;;15.68;;
73474;SDS011;61711;52.266;10.542;2022-10-31T04:51:54;33.13;;;15.80;;
73474;SDS011;61711;52.266;10.542;2022-10-31T04:54:21;34.40;;;16.02;;
73474;SDS011;61711;52.266;10.542;2022-10-31T04:56:47;34.22;;;16.75;;
73474;SDS011;61711;52.266;10.542;2022-10-31T04:59:12;31.50;;;16.35;;
73474;SDS011;61711;52.266;10.542;2022-10-31T05:01:38;29.83;;;16.58;;
73474;SDS011;61711;52.266;10.542;2022-10-31T05:04:04;38.10;;;17.42;;
73474;SDS011;61711;52.266;10.542;2022-10-31T05:06:30;33.35;;;16.92;;
73474;SDS011;61711;52.266;10.542;2022-10-31T05:08:57;39.25;;;17.85;;
73474;SDS011;61711;52.266;10.542;2022-10-31T05:11:23;33.42;;;17.58;;
73474;SDS011;61711;52.266;10.542;2022-10-31T05:13:49;38.80;;;17.80;;
73474;SDS011;61711;52.266;10.542;2022-10-31T05:16:15;36.53;;;18.13;;
73474;SDS011;61711;52.266;10.542;2022-10-31T05:18:41;36.13;;;17.20;;
73474;SDS011;61711;52.266;10.542;2022-10-31T05:21:07;36.67;;;17.38;;
73474;SDS011;61711;52.266;10.542;2022-10-31T05:23:33;33.05;;;17.05;;
73474;SDS011;61711;52.266;10.542;2022-10-31T05:25:59;37.67;;;18.45;;
73474;SDS011;61711;52.266;10.542;2022-10-31T05:28:25;36.95;;;18.00;;
73474;SDS011;61711;52.266;10.542;2022-10-31T05:30:51;39.00;;;17.45;;
73474;SDS011;61711;52.266;10.542;2022-10-31T05:33:17;42.33;;;19.17;;
73474;SDS011;61711;52.266;10.542;2022-10-31T05:35:43;36.28;;;19.10;;
73474;SDS011;61711;52.266;10.542;2022-10-31T05:38:09;36.97;;;18.00;;
73474;SDS011;61711;52.266;10.542;2022-10-31T05:40:35;38.85;;;18.48;;
73474;SDS011;61711;52.266;10.542;2022-10-31T05:43:01;35.45;;;19.27;;
73474;SDS011;61711;52.266;10.542;2022-10-31T05:45:27;38.50;;;19.10;;
73474;SDS011;61711;52.266;10.542;2022-10-31T05:47:53;37.38;;;18.13;;
73474;SDS011;61711;52.266;10.542;2022-10-31T05:50:21;38.95;;;18.77;;
73474;SDS011;61711;52.266;10.542;2022-10-31T05:52:47;43.13;;;18.70;;
73474;SDS011;61711;52.266;10.542;2022-10-31T05:55:13;39.67;;;19.05;;
73474;SDS011;61711;52.266;10.542;2022-10-31T05:57:39;37.67;;;19.02;;
73474;SDS011;61711;52.266;10.542;2022-10-31T06:00:05;41.03;;;19.38;;
73474;SDS011;61711;52.266;10.542;2022-10-31T06:02:31;39.28;;;19.35;;
73474;SDS011;61711;52.266;10.542;2022-10-31T06:04:59;41.58;;;19.40;;
73474;SDS011;61711;52.266;10.542;2022-10-31T06:07:26;40.75;;;19.10;;
73474;SDS011;61711;52.266;10.542;2022-10-31T06:09:52;38.00;;;18.98;;
73474;SDS011;61711;52.266;10.542;2022-10-31T06:12:18;36.63;;;18.48;;
73474;SDS011;61711;52.266;10.542;2022-10-31T06:14:44;41.15;;;20.02;;
73474;SDS011;61711;52.266;10.542;2022-10-31T06:17:10;42.08;;;19.05;;
73474;SDS011;61711;52.266;10.542;2022-10-31T06:19:36;38.15;;;18.98;;
73474;SDS011;61711;52.266;10.542;2022-10-31T06:22:02;40.47;;;19.20;;
73474;SDS011;61711;52.266;10.542;2022-10-31T06:24:28;42.17;;;19.10;;
73474;SDS011;61711;52.266;10.542;2022-10-31T06:26:54;45.05;;;19.75;;
73474;SDS011;61711;52.266;10.542;2022-10-31T06:29:20;40.53;;;19.67;;
73474;SDS011;61711;52.266;10.542;2022-10-31T06:31:46;42.60;;;18.77;;
73474;SDS011;61711;52.266;10.542;2022-10-31T06:34:12;39.53;;;19.45;;
73474;SDS011;61711;52.266;10.542;2022-10-31T06:36:38;43.15;;;19.88;;
73474;SDS011;61711;52.266;10.542;2022-10-31T06:39:04;40.78;;;19.17;;
73474;SDS011;61711;52.266;10.542;2022-10-31T06:41:30;42.35;;;19.83;;
73474;SDS011;61711;52.266;10.542;2022-10-31T06:43:56;39.60;;;18.40;;
73474;SDS011;61711;52.266;10.542;2022-10-31T06:46:22;34.95;;;18.50;;
73474;SDS011;61711;52.266;10.542;2022-10-31T06:48:48;40.97;;;18.65;;
73474;SDS011;61711;52.266;10.542;2022-10-31T06:51:14;36.95;;;19.33;;
73474;SDS011;61711;52.266;10.542;2022-10-31T06:53:40;39.60;;;17.67;;
73474;SDS011;61711;52.266;10.542;2022-10-31T06:56:06;35.30;;;18.13;;
73474;SDS011;61711;52.266;10.542;2022-10-31T06:58:32;35.45;;;18.38;;
73474;SDS011;61711;52.266;10.542;2022-10-31T07:00:59;36.50;;;18.13;;
73474;SDS011;61711;52.266;10.542;2022-10-31T07:03:25;37.45;;;17.90;;
73474;SDS011;61711;52.266;10.542;2022-10-31T07:05:51;37.20;;;17.67;;
73474;SDS011;61711;52.266;10.542;2022-10-31T07:08:17;36.97;;;18.92;;
73474;SDS011;61711;52.266;10.542;2022-10-31T07:10:49;39.88;;;17.98;;
73474;SDS011;61711;52.266;10.542;2022-10-31T07:13:16;38.03;;;17.55;;
73474;SDS011;61711;52.266;10.542;2022-10-31T07:15:42;38.83;;;17.83;;
73474;SDS011;61711;52.266;10.542;2022-10-31T07:18:10;39.42;;;18.45;;
73474;SDS011;61711;52.266;10.542;2022-10-31T07:20:36;36.15;;;18.05;;
73474;SDS011;61711;52.266;10.542;2022-10-31T07:23:03;36.47;;;17.60;;
73474;SDS011;61711;52.266;10.542;2022-10-31T07:25:29;35.30;;;18.52;;
73474;SDS011;61711;52.266;10.542;2022-10-31T07:27:55;35.33;;;16.75;;
73474;SDS011;61711;52.266;10.542;2022-10-31T07:30:21;41.95;;;18.15;;
73474;SDS011;61711;52.266;10.542;2022-10-31T07:32:48;38.58;;;18.35;;
73474;SDS011;61711;52.266;10.542;2022-10-31T07:35:15;37.72;;;19.25;;
73474;SDS011;61711;52.266;10.542;2022-10-31T07:37:41;37.03;;;19.02;;
73474;SDS011;61711;52.266;10.542;2022-10-31T07:40:08;36.17;;;18.30;;
73474;SDS011;61711;52.266;10.542;2022-10-31T07:42:35;33.70;;;18.08;;
73474;SDS011;61711;52.266;10.542;2022-10-31T07:45:01;41.45;;;18.63;;
73474;SDS011;61711;52.266;10.542;2022-10-31T07:47:27;34.42;;;17.23;;
73474;SDS011;61711;52.266;10.542;2022-10-31T07:49:53;38.17;;;17.15;;
73474;SDS011;61711;52.266;10.542;2022-10-31T07:52:19;36.05;;;18.23;;
73474;SDS011;61711;52.266;10.542;2022-10-31T07:54:46;41.08;;;18.30;;
73474;SDS011;61711;52.266;10.542;2022-10-31T07:57:12;36.08;;;18.48;;
73474;SDS011;61711;52.266;10.542;2022-10-31T07:59:38;35.47;;;18.23;;
73474;SDS011;61711;52.266;10.542;2022-10-31T08:02:04;38.63;;;18.48;;
73474;SDS011;61711;52.266;10.542;2022-10-31T08:04:30;34.22;;;17.90;;
73474;SDS011;61711;52.266;10.542;2022-10-31T08:06:56;37.05;;;18.52;;
73474;SDS011;61711;52.266;10.542;2022-10-31T08:09:22;35.47;;;17.50;;
73474;SDS011;61711;52.266;10.542;2022-10-31T08:11:48;41.30;;;18.73;;
73474;SDS011;61711;52.266;10.542;2022-10-31T08:14:14;56.38;;;29.95;;
73474;SDS011;61711;52.266;10.542;2022-10-31T08:16:40;38.78;;;20.60;;
73474;SDS011;61711;52.266;10.542;2022-10-31T08:19:06;41.28;;;19.02;;
73474;SDS011;61711;52.266;10.542;2022-10-31T08:21:32;40.20;;;18.40;;
73474;SDS011;61711;52.266;10.542;2022-10-31T08:23:58;36.03;;;17.98;;
73474;SDS011;61711;52.266;10.542;2022-10-31T08:26:24;39.80;;;18.25;;
73474;SDS011;61711;52.266;10.542;2022-10-31T08:28:50;34.30;;;17.75;;
73474;SDS011;61711;52.266;10.542;2022-10-31T08:31:16;37.20;;;17.45;;
73474;SDS011;61711;52.266;10.542;2022-10-31T08:33:42;39.40;;;17.67;;
73474;SDS011;61711;52.266;10.542;2022-10-31T08:36:08;41.25;;;17.92;;
73474;SDS011;61711;52.266;10.542;2022-10-31T08:38:34;40.33;;;20.42;;
73474;SDS011;61711;52.266;10.542;2022-10-31T08:41:00;36.42;;;18.58;;
73474;SDS011;61711;52.266;10.542;2022-10-31T08:43:26;37.55;;;18.63;;
73474;SDS011;61711;52.266;10.542;2022-10-31T08:45:52;54.78;;;23.27;;
73474;SDS011;61711;52.266;10.542;2022-10-31T08:48:20;63.63;;;25.17;;
73474;SDS011;61711;52.266;10.542;2022-10-31T08:50:46;57.33;;;24.00;;
73474;SDS011;61711;52.266;10.542;2022-10-31T08:55:40;58.63;;;25.80;;
73474;SDS011;61711;52.266;10.542;2022-10-31T08:58:07;53.85;;;25.90;;
73474;SDS011;61711;52.266;10.542;2022-10-31T09:00:33;58.47;;;25.13;;
73474;SDS011;61711;52.266;10.542;2022-10-31T09:03:04;55.95;;;24.90;;
73474;SDS011;61711;52.266;10.542;2022-10-31T09:05:30;52.17;;;23.50;;
73474;SDS011;61711;52.266;10.542;2022-10-31T09:08:00;55.25;;;24.10;;
73474;SDS011;61711;52.266;10.542;2022-10-31T09:10:27;60.25;;;25.15;;
73474;SDS011;61711;52.266;10.542;2022-10-31T09:15:22;49.92;;;22.88;;
73474;SDS011;61711;52.266;10.542;2022-10-31T09:17:48;49.47;;;22.63;;
73474;SDS011;61711;52.266;10.542;2022-10-31T09:20:14;48.72;;;23.63;;
73474;SDS011;61711;52.266;10.542;2022-10-31T09:22:40;49.50;;;24.05;;
73474;SDS011;61711;52.266;10.542;2022-10-31T09:25:07;53.70;;;23.70;;
73474;SDS011;61711;52.266;10.542;2022-10-31T09:27:33;53.33;;;23.33;;
73474;SDS011;61711;52.266;10.542;2022-10-31T09:29:59;49.15;;;24.23;;
73474;SDS011;61711;52.266;10.542;2022-10-31T09:32:25;53.65;;;23.70;;
73474;SDS011;61711;52.266;10.542;2022-10-31T09:34:51;54.55;;;23.92;;
73474;SDS011;61711;52.266;10.542;2022-10-31T09:37:17;51.92;;;24.33;;
73474;SDS011;61711;52.266;10.542;2022-10-31T09:39:43;51.55;;;23.63;;
73474;SDS011;61711;52.266;10.542;2022-10-31T09:42:15;48.38;;;23.52;;
73474;SDS011;61711;52.266;10.542;2022-10-31T09:52:23;53.13;;;24.05;;
73474;SDS011;61711;52.266;10.542;2022-10-31T09:55:02;50.53;;;23.75;;
73474;SDS011;61711;52.266;10.542;2022-10-31T09:57:32;54.05;;;23.85;;
73474;SDS011;61711;52.266;10.542;2022-10-31T09:59:59;50.05;;;24.25;;
73474;SDS011;61711;52.266;10.542;2022-10-31T10:07:21;49.53;;;23.48;;
73474;SDS011;61711;52.266;10.542;2022-10-31T10:09:48;46.53;;;22.80;;
73474;SDS011;61711;52.266;10.542;2022-10-31T10:20:14;51.67;;;23.52;;
73474;SDS011;61711;52.266;10.542;2022-10-31T10:22:50;47.92;;;22.85;;
73474;SDS011;61711;52.266;10.542;2022-10-31T10:25:52;47.65;;;22.70;;
73474;SDS011;61711;52.266;10.542;2022-10-31T10:28:21;47.10;;;22.13;;
73474;SDS011;61711;52.266;10.542;2022-10-31T10:33:20;42.42;;;20.08;;
73474;SDS011;61711;52.266;10.542;2022-10-31T10:35:52;46.60;;;21.00;;
73474;SDS011;61711;52.266;10.542;2022-10-31T10:38:34;38.75;;;20.25;;
73474;SDS011;61711;52.266;10.542;2022-10-31T10:41:01;42.53;;;20.75;;
73474;SDS011;61711;52.266;10.542;2022-10-31T10:59:04;36.28;;;18.48;;
73474;SDS011;61711;52.266;10.542;2022-10-31T11:01:32;28.92;;;16.05;;
73474;SDS011;61711;52.266;10.542;2022-10-31T11:03:58;26.88;;;13.65;;
73474;SDS011;61711;52.266;10.542;2022-10-31T11:06:24;23.30;;;12.75;;
73474;SDS011;61711;52.266;10.542;2022-10-31T11:08:51;28.30;;;14.05;;
73474;SDS011;61711;52.266;10.542;2022-10-31T11:13:44;27.00;;;14.13;;
73474;SDS011;61711;52.266;10.542;2022-10-31T11:16:12;24.23;;;11.98;;
73474;SDS011;61711;52.266;10.542;2022-10-31T11:18:39;28.40;;;13.20;;
73474;SDS011;61711;52.266;10.542;2022-10-31T11:21:17;27.70;;;14.35;;
73474;SDS011;61711;52.266;10.542;2022-10-31T11:23:44;27.92;;;14.35;;
73474;SDS011;61711;52.266;10.542;2022-10-31T11:26:18;29.55;;;13.50;;
73474;SDS011;61711;52.266;10.542;2022-10-31T11:28:44;26.63;;;13.00;;
73474;SDS011;61711;52.266;10.542;2022-10-31T11:31:21;26.67;;;13.60;;
73474;SDS011;61711;52.266;10.542;2022-10-31T11:33:48;27.73;;;14.60;;
73474;SDS011;61711;52.266;10.542;2022-10-31T11:38:41;28.90;;;14.77;;
73474;SDS011;61711;52.266;10.542;2022-10-31T11:43:34;30.67;;;15.30;;
73474;SDS011;61711;52.266;10.542;2022-10-31T11:46:07;31.88;;;15.57;;
73474;SDS011;61711;52.266;10.542;2022-10-31T11:48:34;26.38;;;14.13;;
73474;SDS011;61711;52.266;10.542;2022-10-31T11:51:00;26.60;;;14.13;;
73474;SDS011;61711;52.266;10.542;2022-10-31T11:53:29;26.90;;;14.25;;
73474;SDS011;61711;52.266;10.542;2022-10-31T11:56:15;28.08;;;13.90;;
73474;SDS011;61711;52.266;10.542;2022-10-31T11:58:41;29.40;;;14.43;;
73474;SDS011;61711;52.266;10.542;2022-10-31T12:01:22;23.98;;;13.48;;
73474;SDS011;61711;52.266;10.542;2022-10-31T12:06:37;26.13;;;13.13;;
73474;SDS011;61711;52.266;10.542;2022-10-31T12:09:12;30.55;;;14.43;;
73474;SDS011;61711;52.266;10.542;2022-10-31T12:16:41;29.05;;;13.73;;
73474;SDS011;61711;52.266;10.542;2022-10-31T12:24:28;24.48;;;12.57;;
73474;SDS011;61711;52.266;10.542;2022-10-31T12:27:06;23.20;;;13.15;;
73474;SDS011;61711;52.266;10.542;2022-10-31T12:32:08;23.48;;;13.30;;
73474;SDS011;61711;52.266;10.542;2022-10-31T12:43:04;29.52;;;13.70;;
73474;SDS011;61711;52.266;10.542;2022-10-31T13:01:29;15.43;;;7.50;;
73474;SDS011;61711;52.266;10.542;2022-10-31T13:04:03;16.88;;;7.15;;
73474;SDS011;61711;52.266;10.542;2022-10-31T13:06:40;14.57;;;5.97;;
73474;SDS011;61711;52.266;10.542;2022-10-31T13:09:10;10.00;;;4.50;;
73474;SDS011;61711;52.266;10.542;2022-10-31T13:11:39;9.88;;;4.72;;
73474;SDS011;61711;52.266;10.542;2022-10-31T13:14:19;12.60;;;6.32;;
73474;SDS011;61711;52.266;10.542;2022-10-31T13:16:47;9.15;;;5.20;;
73474;SDS011;61711;52.266;10.542;2022-10-31T13:19:18;9.50;;;5.47;;
73474;SDS011;61711;52.266;10.542;2022-10-31T13:24:21;12.07;;;5.53;;
73474;SDS011;61711;52.266;10.542;2022-10-31T13:26:54;12.20;;;5.65;;
73474;SDS011;61711;52.266;10.542;2022-10-31T13:29:26;11.80;;;5.80;;
73474;SDS011;61711;52.266;10.542;2022-10-31T13:31:53;11.07;;;5.78;;
73474;SDS011;61711;52.266;10.542;2022-10-31T13:34:33;14.77;;;6.43;;
73474;SDS011;61711;52.266;10.542;2022-10-31T13:37:12;13.85;;;6.47;;
73474;SDS011;61711;52.266;10.542;2022-10-31T13:45:13;12.70;;;6.97;;
73474;SDS011;61711;52.266;10.542;2022-10-31T13:47:40;12.18;;;7.13;;
73474;SDS011;61711;52.266;10.542;2022-10-31T13:50:28;11.63;;;7.00;;
73474;SDS011;61711;52.266;10.542;2022-10-31T13:53:03;15.27;;;7.30;;
73474;SDS011;61711;52.266;10.542;2022-10-31T13:55:44;16.27;;;7.68;;
73474;SDS011;61711;52.266;10.542;2022-10-31T13:58:21;13.52;;;6.90;;
73474;SDS011;61711;52.266;10.542;2022-10-31T14:00:57;16.45;;;8.18;;
73474;SDS011;61711;52.266;10.542;2022-10-31T14:03:23;13.43;;;7.43;;
73474;SDS011;61711;52.266;10.542;2022-10-31T14:05:53;16.45;;;8.02;;
73474;SDS011;61711;52.266;10.542;2022-10-31T14:08:21;17.45;;;8.32;;
73474;SDS011;61711;52.266;10.542;2022-10-31T14:10:49;16.60;;;8.18;;
73474;SDS011;61711;52.266;10.542;2022-10-31T14:15:56;16.02;;;8.10;;
73474;SDS011;61711;52.266;10.542;2022-10-31T14:18:23;16.23;;;8.10;;
73474;SDS011;61711;52.266;10.542;2022-10-31T14:20:49;15.07;;;7.82;;
73474;SDS011;61711;52.266;10.542;2022-10-31T14:25:50;18.15;;;8.05;;
73474;SDS011;61711;52.266;10.542;2022-10-31T14:28:18;19.40;;;8.18;;
73474;SDS011;61711;52.266;10.542;2022-10-31T14:30:51;17.23;;;7.88;;
73474;SDS011;61711;52.266;10.542;2022-10-31T14:39:04;17.33;;;8.38;;
73474;SDS011;61711;52.266;10.542;2022-10-31T14:44:03;20.70;;;9.52;;
73474;SDS011;61711;52.266;10.542;2022-10-31T14:46:47;18.63;;;9.30;;
73474;SDS011;61711;52.266;10.542;2022-10-31T14:51:48;20.00;;;9.57;;
73474;SDS011;61711;52.266;10.542;2022-10-31T14:54:38;17.30;;;8.82;;
73474;SDS011;61711;52.266;10.542;2022-10-31T14:57:07;16.95;;;8.93;;
73474;SDS011;61711;52.266;10.542;2022-10-31T14:59:38;18.02;;;9.43;;
73474;SDS011;61711;52.266;10.542;2022-10-31T15:04:37;15.77;;;7.95;;
73474;SDS011;61711;52.266;10.542;2022-10-31T15:07:05;15.15;;;8.10;;
73474;SDS011;61711;52.266;10.542;2022-10-31T15:09:34;17.42;;;7.93;;
73474;SDS011;61711;52.266;10.542;2022-10-31T15:12:22;15.63;;;8.13;;
73474;SDS011;61711;52.266;10.542;2022-10-31T15:14:46;19.00;;;8.25;;
73474;SDS011;61711;52.266;10.542;2022-10-31T15:17:12;16.90;;;7.80;;
73474;SDS011;61711;52.266;10.542;2022-10-31T15:19:39;15.00;;;7.90;;
73474;SDS011;61711;52.266;10.542;2022-10-31T15:22:05;19.13;;;8.27;;
73474;SDS011;61711;52.266;10.542;2022-10-31T15:24:35;16.45;;;8.35;;
73474;SDS011;61711;52.266;10.542;2022-10-31T15:27:02;16.45;;;8.02;;
73474;SDS011;61711;52.266;10.542;2022-10-31T15:29:28;19.25;;;8.57;;
73474;SDS011;61711;52.266;10.542;2022-10-31T15:31:55;18.17;;;9.80;;
73474;SDS011;61711;52.266;10.542;2022-10-31T15:34:26;19.27;;;10.20;;
73474;SDS011;61711;52.266;10.542;2022-10-31T15:36:54;22.65;;;10.57;;
73474;SDS011;61711;52.266;10.542;2022-10-31T15:39:20;21.88;;;10.55;;
73474;SDS011;61711;52.266;10.542;2022-10-31T15:49:30;29.67;;;12.18;;
73474;SDS011;61711;52.266;10.542;2022-10-31T15:51:57;23.75;;;12.38;;
73474;SDS011;61711;52.266;10.542;2022-10-31T15:54:25;23.50;;;12.77;;
73474;SDS011;61711;52.266;10.542;2022-10-31T15:56:51;26.98;;;13.73;;
73474;SDS011;61711;52.266;10.542;2022-10-31T15:59:21;26.70;;;13.57;;
73474;SDS011;61711;52.266;10.542;2022-10-31T16:01:55;27.00;;;13.15;;
73474;SDS011;61711;52.266;10.542;2022-10-31T16:04:23;27.65;;;13.77;;
73474;SDS011;61711;52.266;10.542;2022-10-31T16:07:03;26.42;;;13.65;;
73474;SDS011;61711;52.266;10.542;2022-10-31T16:09:37;24.60;;;13.07;;
73474;SDS011;61711;52.266;10.542;2022-10-31T16:12:14;27.80;;;13.27;;
73474;SDS011;61711;52.266;10.542;2022-10-31T16:14:41;28.60;;;13.85;;
73474;SDS011;61711;52.266;10.542;2022-10-31T16:17:10;29.08;;;14.27;;
73474;SDS011;61711;52.266;10.542;2022-10-31T16:19:46;28.27;;;14.52;;
73474;SDS011;61711;52.266;10.542;2022-10-31T16:22:14;27.10;;;14.68;;
73474;SDS011;61711;52.266;10.542;2022-10-31T16:24:46;28.90;;;14.48;;
73474;SDS011;61711;52.266;10.542;2022-10-31T16:27:17;29.70;;;14.73;;
73474;SDS011;61711;52.266;10.542;2022-10-31T16:29:44;29.05;;;13.93;;
73474;SDS011;61711;52.266;10.542;2022-10-31T16:37:24;28.90;;;15.10;;
73474;SDS011;61711;52.266;10.542;2022-10-31T16:39:50;30.77;;;14.90;;
73474;SDS011;61711;52.266;10.542;2022-10-31T16:42:16;29.92;;;15.40;;
73474;SDS011;61711;52.266;10.542;2022-10-31T16:44:43;35.08;;;18.00;;
73474;SDS011;61711;52.266;10.542;2022-10-31T16:47:13;44.15;;;20.70;;
73474;SDS011;61711;52.266;10.542;2022-10-31T16:49:40;52.33;;;22.20;;
73474;SDS011;61711;52.266;10.542;2022-10-31T16:52:06;51.35;;;23.75;;
73474;SDS011;61711;52.266;10.542;2022-10-31T16:54:32;56.40;;;24.60;;
73474;SDS011;61711;52.266;10.542;2022-10-31T16:56:58;63.20;;;26.00;;
73474;SDS011;61711;52.266;10.542;2022-10-31T16:59:25;63.25;;;25.55;;
73474;SDS011;61711;52.266;10.542;2022-10-31T17:01:52;59.15;;;24.98;;
73474;SDS011;61711;52.266;10.542;2022-10-31T17:04:18;59.80;;;25.63;;